Time,TemperatureF,DewpointF,PressureIn,WindDirection,WindDirectionDegrees,WindSpeedMPH,WindSpeedGustMPH,Humidity,HourlyPrecipIn,Conditions,Clouds,dailyrainin,SolarRadiationWatts/m^2,SoftwareType,DateUTC
2013-05-04 00:21:00,33.0,31.0,-100.00,NNE,12,3.0,6.0,94,0.00,,,0.00,0.000000,,2013-05-04 08:21:00,
2013-05-04 00:31:00,33.0,31.0,-100.00,NNE,12,3.0,6.0,94,0.00,,,0.00,0.000000,,2013-05-04 08:31:00,
2013-05-04 00:41:00,33.0,31.0,-100.00,NNE,12,3.0,6.0,94,0.00,,,0.00,0.000000,,2013-05-04 08:41:00,
2013-05-04 00:52:00,33.0,31.0,-100.00,NNE,12,3.0,6.0,94,0.00,,,0.00,0.000000,,2013-05-04 08:52:00,
2013-05-04 01:21:00,33.0,32.0,-100.00,NNE,12,3.0,7.0,95,0.00,,,0.00,0.000000,,2013-05-04 09:21:00,
2013-05-04 01:32:00,33.0,32.0,-100.00,NNE,12,3.0,7.0,95,0.00,,,0.00,0.000000,,2013-05-04 09:32:00,
2013-05-04 01:42:00,33.0,32.0,-100.00,NNE,12,3.0,7.0,95,0.00,,,0.00,0.000000,,2013-05-04 09:42:00,
2013-05-04 01:52:00,33.0,32.0,-100.00,NNE,12,3.0,7.0,95,0.00,,,0.00,0.000000,,2013-05-04 09:52:00,
2013-05-04 02:22:00,32.0,31.0,-100.00,NNE,22,3.0,6.0,96,0.00,,,0.00,0.000000,,2013-05-04 10:22:00,
2013-05-04 02:33:00,32.0,31.0,-100.00,NNE,22,3.0,6.0,96,0.00,,,0.00,0.000000,,2013-05-04 10:33:00,
2013-05-04 02:42:00,32.0,31.0,-100.00,NNE,22,3.0,6.0,96,0.00,,,0.00,0.000000,,2013-05-04 10:42:00,
2013-05-04 02:52:00,32.0,31.0,-100.00,NNE,22,3.0,6.0,96,0.00,,,0.00,0.000000,,2013-05-04 10:52:00,
2013-05-04 03:21:00,32.0,31.0,-100.00,NNE,21,2.0,6.0,96,0.00,,,0.00,0.000000,,2013-05-04 11:21:00,
2013-05-04 03:32:00,32.0,31.0,-100.00,NNE,21,2.0,6.0,96,0.00,,,0.00,0.000000,,2013-05-04 11:32:00,
2013-05-04 03:42:00,32.0,31.0,-100.00,NNE,21,2.0,6.0,96,0.00,,,0.00,0.000000,,2013-05-04 11:42:00,
2013-05-04 04:26:00,32.0,31.0,-100.00,NNE,12,1.0,4.0,96,0.00,,,-99.99,0.000000,,2013-05-04 12:26:00,
2013-05-04 04:35:00,32.0,31.0,-100.00,NNE,12,1.0,4.0,96,0.00,,,-99.99,0.000000,,2013-05-04 12:35:00,
2013-05-04 04:41:00,32.0,31.0,-100.00,NNE,12,1.0,4.0,96,0.00,,,-99.99,0.000000,,2013-05-04 12:41:00,
2013-05-04 04:51:00,32.0,31.0,-100.00,NNE,12,1.0,4.0,96,0.00,,,-99.99,0.000000,,2013-05-04 12:51:00,
2013-05-04 05:21:00,32.0,31.0,-100.00,NNE,32,2.0,5.0,96,0.00,,,-99.99,0.000000,,2013-05-04 13:21:00,
2013-05-04 05:32:00,32.0,31.0,-100.00,NNE,32,2.0,5.0,96,0.00,,,-99.99,0.000000,,2013-05-04 13:32:00,
2013-05-04 05:41:00,32.0,31.0,-100.00,NNE,32,2.0,5.0,96,0.00,,,-99.99,0.000000,,2013-05-04 13:41:00,
2013-05-04 05:52:00,32.0,31.0,-100.00,NNE,32,2.0,5.0,96,0.00,,,-99.99,0.000000,,2013-05-04 13:52:00,
2013-05-04 06:21:00,31.0,30.0,-100.00,NNE,18,2.0,5.0,96,0.00,,,-99.99,0.000000,,2013-05-04 14:21:00,
2013-05-04 06:32:00,31.0,30.0,-100.00,NNE,18,2.0,5.0,96,0.00,,,-99.99,0.000000,,2013-05-04 14:32:00,
2013-05-04 06:41:00,31.0,30.0,-100.00,NNE,18,2.0,5.0,96,0.00,,,-99.99,0.000000,,2013-05-04 14:41:00,
2013-05-04 06:51:00,31.0,30.0,-100.00,NNE,18,2.0,5.0,96,0.00,,,-99.99,0.000000,,2013-05-04 14:51:00,
2013-05-04 07:21:00,31.0,30.0,-100.00,NNE,30,3.0,6.0,96,0.00,,,0.00,4.000000,,2013-05-04 15:21:00,
2013-05-04 07:33:00,31.0,30.0,-100.00,NNE,30,3.0,6.0,96,0.00,,,0.00,4.000000,,2013-05-04 15:33:00,
2013-05-04 07:43:00,31.0,30.0,-100.00,NNE,30,3.0,6.0,96,0.00,,,0.00,4.000000,,2013-05-04 15:43:00,
2013-05-04 07:52:00,31.0,30.0,-100.00,NNE,30,3.0,6.0,96,0.00,,,0.00,4.000000,,2013-05-04 15:52:00,
2013-05-04 08:22:00,32.0,31.0,-100.00,NNE,30,3.0,6.0,96,0.00,,,-99.99,15.000000,,2013-05-04 16:22:00,
2013-05-04 08:33:00,32.0,31.0,-100.00,NNE,30,3.0,6.0,96,0.00,,,-99.99,15.000000,,2013-05-04 16:33:00,
2013-05-04 08:42:00,32.0,31.0,-100.00,NNE,30,3.0,6.0,96,0.00,,,-99.99,15.000000,,2013-05-04 16:42:00,
2013-05-04 08:52:00,32.0,31.0,-100.00,NNE,30,3.0,6.0,96,0.00,,,-99.99,15.000000,,2013-05-04 16:52:00,
2013-05-04 09:22:00,33.0,31.0,-100.00,NNE,13,3.0,5.0,94,0.00,,,0.00,27.000000,,2013-05-04 17:22:00,
2013-05-04 09:32:00,33.0,31.0,-100.00,NNE,13,3.0,5.0,94,0.00,,,0.00,27.000000,,2013-05-04 17:32:00,
2013-05-04 09:42:00,33.0,31.0,-100.00,NNE,13,3.0,5.0,94,0.00,,,0.00,27.000000,,2013-05-04 17:42:00,
2013-05-04 09:52:00,33.0,31.0,-100.00,NNE,13,3.0,5.0,94,0.00,,,0.00,27.000000,,2013-05-04 17:52:00,
2013-05-04 10:21:00,34.0,31.0,-100.00,NNE,15,3.0,5.0,89,0.02,,,0.02,37.000000,,2013-05-04 18:21:00,
2013-05-04 10:32:00,34.0,31.0,-100.00,NNE,15,3.0,5.0,89,0.02,,,0.02,37.000000,,2013-05-04 18:32:00,
2013-05-04 10:42:00,34.0,31.0,-100.00,NNE,15,3.0,5.0,89,0.02,,,0.02,37.000000,,2013-05-04 18:42:00,
2013-05-04 10:52:00,34.0,31.0,-100.00,NNE,15,3.0,5.0,89,0.02,,,0.02,37.000000,,2013-05-04 18:52:00,
2013-05-04 11:21:00,34.0,31.0,-100.00,NNE,13,4.0,7.0,87,0.03,,,0.05,62.000000,,2013-05-04 19:21:00,
2013-05-04 11:31:00,34.0,31.0,-100.00,NNE,13,4.0,7.0,87,0.03,,,0.05,62.000000,,2013-05-04 19:31:00,
2013-05-04 11:42:00,34.0,31.0,-100.00,NNE,13,4.0,7.0,87,0.03,,,0.05,62.000000,,2013-05-04 19:42:00,
2013-05-04 11:52:00,34.0,31.0,-100.00,NNE,13,4.0,7.0,87,0.03,,,0.05,62.000000,,2013-05-04 19:52:00,
2013-05-04 12:21:00,35.0,32.0,-100.00,NNE,15,3.0,7.0,89,0.06,,,0.11,108.000000,,2013-05-04 20:21:00,
2013-05-04 12:32:00,35.0,32.0,-100.00,NNE,15,3.0,7.0,89,0.06,,,0.11,108.000000,,2013-05-04 20:32:00,
2013-05-04 12:42:00,35.0,32.0,-100.00,NNE,15,3.0,7.0,89,0.06,,,0.11,108.000000,,2013-05-04 20:42:00,
2013-05-04 12:51:00,35.0,32.0,-100.00,NNE,15,3.0,7.0,89,0.06,,,0.11,108.000000,,2013-05-04 20:51:00,
2013-05-04 13:22:00,38.0,33.0,-100.00,North,354,4.0,9.0,83,0.16,,,0.27,237.000000,,2013-05-04 21:22:00,
2013-05-04 13:33:00,38.0,33.0,-100.00,North,354,4.0,9.0,83,0.16,,,0.27,237.000000,,2013-05-04 21:33:00,
2013-05-04 13:43:00,38.0,33.0,-100.00,North,354,4.0,9.0,83,0.16,,,0.27,237.000000,,2013-05-04 21:43:00,
2013-05-04 13:52:00,38.0,33.0,-100.00,North,354,4.0,9.0,83,0.16,,,0.27,237.000000,,2013-05-04 21:52:00,
2013-05-04 14:22:00,36.0,32.0,-100.00,NNW,331,3.0,9.0,86,0.02,,,0.29,261.000000,,2013-05-04 22:22:00,
2013-05-04 14:32:00,36.0,32.0,-100.00,NNW,331,3.0,9.0,86,0.02,,,0.29,261.000000,,2013-05-04 22:32:00,
2013-05-04 14:42:00,36.0,32.0,-100.00,NNW,331,3.0,9.0,86,0.02,,,0.29,261.000000,,2013-05-04 22:42:00,
2013-05-04 14:52:00,36.0,32.0,-100.00,NNW,331,3.0,9.0,86,0.02,,,0.29,261.000000,,2013-05-04 22:52:00,
2013-05-04 15:21:00,37.0,34.0,-100.00,WNW,299,3.0,6.0,88,0.02,,,-99.99,232.000000,,2013-05-04 23:21:00,
2013-05-04 15:32:00,37.0,34.0,-100.00,WNW,299,3.0,6.0,88,0.02,,,-99.99,232.000000,,2013-05-04 23:32:00,
2013-05-04 15:42:00,37.0,34.0,-100.00,WNW,299,3.0,6.0,88,0.02,,,-99.99,232.000000,,2013-05-04 23:42:00,
2013-05-04 15:52:00,37.0,34.0,-100.00,WNW,299,3.0,6.0,88,0.02,,,-99.99,232.000000,,2013-05-04 23:52:00,
2013-05-04 16:21:00,33.0,31.0,-100.00,SW,224,4.0,6.0,91,0.03,,,0.34,183.000000,,2013-05-05 00:21:00,
2013-05-04 16:31:00,33.0,31.0,-100.00,SW,224,4.0,6.0,91,0.03,,,0.34,183.000000,,2013-05-05 00:31:00,
2013-05-04 16:42:00,33.0,31.0,-100.00,SW,224,4.0,6.0,91,0.03,,,0.34,183.000000,,2013-05-05 00:42:00,
2013-05-04 16:51:00,33.0,31.0,-100.00,SW,224,4.0,6.0,91,0.03,,,0.34,183.000000,,2013-05-05 00:51:00,
2013-05-04 17:21:00,34.0,32.0,-100.00,SW,215,3.0,5.0,92,0.03,,,0.37,187.000000,,2013-05-05 01:21:00,
2013-05-04 17:32:00,34.0,32.0,-100.00,SW,215,3.0,5.0,92,0.03,,,0.37,187.000000,,2013-05-05 01:32:00,
2013-05-04 17:42:00,34.0,32.0,-100.00,SW,215,3.0,5.0,92,0.03,,,0.37,187.000000,,2013-05-05 01:42:00,
2013-05-04 17:52:00,34.0,32.0,-100.00,SW,215,3.0,5.0,92,0.03,,,0.37,187.000000,,2013-05-05 01:52:00,
2013-05-04 18:21:00,34.0,31.0,-100.00,SSW,209,2.0,4.0,90,0.02,,,0.39,167.000000,,2013-05-05 02:21:00,
2013-05-04 18:31:00,34.0,31.0,-100.00,SSW,209,2.0,4.0,90,0.02,,,0.39,167.000000,,2013-05-05 02:31:00,
2013-05-04 18:42:00,34.0,31.0,-100.00,SSW,209,2.0,4.0,90,0.02,,,0.39,167.000000,,2013-05-05 02:42:00,
2013-05-04 18:52:00,34.0,31.0,-100.00,SSW,209,2.0,4.0,90,0.02,,,0.39,167.000000,,2013-05-05 02:52:00,
2013-05-04 19:21:00,35.0,32.0,-100.00,NNW,327,1.0,4.0,90,0.03,,,0.42,121.000000,,2013-05-05 03:21:00,
2013-05-04 19:32:00,35.0,32.0,-100.00,NNW,327,1.0,4.0,90,0.03,,,0.42,121.000000,,2013-05-05 03:32:00,
2013-05-04 19:42:00,35.0,32.0,-100.00,NNW,327,1.0,4.0,90,0.03,,,0.42,121.000000,,2013-05-05 03:42:00,
2013-05-04 19:52:00,35.0,32.0,-100.00,NNW,327,1.0,4.0,90,0.03,,,0.42,121.000000,,2013-05-05 03:52:00,
2013-05-04 20:22:00,34.0,32.0,-100.00,ENE,73,3.0,6.0,91,0.01,,,0.43,94.000000,,2013-05-05 04:22:00,
2013-05-04 20:32:00,34.0,32.0,-100.00,ENE,73,3.0,6.0,91,0.01,,,0.43,94.000000,,2013-05-05 04:32:00,
2013-05-04 20:43:00,34.0,32.0,-100.00,ENE,73,3.0,6.0,91,0.01,,,0.43,94.000000,,2013-05-05 04:43:00,
2013-05-04 20:52:00,34.0,32.0,-100.00,ENE,73,3.0,6.0,91,0.01,,,0.43,94.000000,,2013-05-05 04:52:00,
2013-05-04 21:21:00,34.0,30.0,-100.00,ESE,102,3.0,5.0,85,0.01,,,0.44,83.000000,,2013-05-05 05:21:00,
2013-05-04 21:31:00,34.0,30.0,-100.00,ESE,102,3.0,5.0,85,0.01,,,0.44,83.000000,,2013-05-05 05:31:00,
2013-05-04 21:42:00,34.0,30.0,-100.00,ESE,102,3.0,5.0,85,0.01,,,0.44,83.000000,,2013-05-05 05:42:00,
2013-05-04 21:51:00,34.0,30.0,-100.00,ESE,102,3.0,5.0,85,0.01,,,0.44,83.000000,,2013-05-05 05:51:00,
2013-05-04 22:21:00,33.0,30.0,-100.00,East,93,5.0,6.0,89,0.00,,,0.44,19.000000,,2013-05-05 06:21:00,
2013-05-04 22:32:00,33.0,30.0,-100.00,East,93,5.0,6.0,89,0.00,,,0.44,19.000000,,2013-05-05 06:32:00,
2013-05-04 22:42:00,33.0,30.0,-100.00,East,93,5.0,6.0,89,0.00,,,0.44,19.000000,,2013-05-05 06:42:00,
2013-05-04 22:51:00,33.0,30.0,-100.00,East,93,5.0,6.0,89,0.00,,,0.44,19.000000,,2013-05-05 06:51:00,
2013-05-04 23:21:00,33.0,30.0,-100.00,SE,138,3.0,5.0,90,0.00,,,0.44,1.000000,,2013-05-05 07:21:00,
2013-05-04 23:32:00,33.0,30.0,-100.00,SE,138,3.0,5.0,90,0.00,,,0.44,1.000000,,2013-05-05 07:32:00,
2013-05-04 23:42:00,33.0,30.0,-100.00,SE,138,3.0,5.0,90,0.00,,,0.44,1.000000,,2013-05-05 07:42:00,
2013-05-04 23:52:00,33.0,30.0,-100.00,SE,138,3.0,5.0,90,0.00,,,0.44,1.000000,,2013-05-05 07:52:00,